Westerdam — PINX — position and weather

sailwx.info

Track history (hours):
 
Tides and Currents Weather Stations Pressure Air Temp Water Temp Dewpoint Dewpoint Depression Visibility Wind Speed Wind Dir Waves Ship Positions

Westerdam

Operator: Holland America Line

Last reported at 2020-Jan-18 20:00 UTC. Time now 2020-Jan-20 23:43 UTC.
Position N 12°30' E 100°36'.

Type: Passenger vessel. MMSI: 244128000.

Wind from 230 at 7 knots

Barometer 1011.8 mb
Air temperature 27.4 ° C
Visibility: greater than 5.4 NM
Dewpoint 16.7 ° C
Water temperature 28.8 ° C

Date/timePositionNaut miles runAvg speedWind from/ knotsBaromVisibWave heightAir tempDewpointWater temp
2020-Jan-18 20:00N 12°30' E 100°36'50211.9 230 / 71011.8 5.4 27.416.728.8
2020-Jan-17 02:00N 04°48' E 103°54'3216.1 330 / 91014.4 5.4 26.215.028.0
2020-Jan-17 00:00N 04°18' E 104°06'1919.0 010 / 181012.0 5.4 25.214.923.0
2020-Jan-16 23:00N 04°00' E 104°12'1313.4 010 / 181011.4 5.4 24.214.023.0
2020-Jan-16 22:00N 03°48' E 104°18'1919.0 010 / 181011.410.8 24.214.023.0
2020-Jan-16 21:00N 03°30' E 104°24'3216.2 010 / 181011.410.8 24.214.023.0
2020-Jan-16 19:00N 03°00' E 104°36'10314.0 010 / 181011.410.8 26.215.923.0
2020-Jan-16 11:37N 01°18' E 104°21'813.1
2020-Jan-16 11:00N 01°16' E 104°13'1912.7
2020-Jan-16 09:30N 01°13' E 103°54'4 4.2
2020-Jan-16 08:30N 01°16' E 103°52'0 0.0
2020-Jan-16 04:30N 01°16' E 103°52'0 0.0
2020-Jan-16 04:00N 01°16' E 103°52'0 0.0
2020-Jan-16 03:30N 01°16' E 103°52'0 0.0
2020-Jan-16 02:30N 01°16' E 103°52'0 0.0
2020-Jan-16 01:30N 01°16' E 103°52'0 0.0
2020-Jan-15 23:30N 01°16' E 103°52'0 0.0
2020-Jan-15 22:30N 01°16' E 103°52'0 0.0
2020-Jan-15 20:00N 01°16' E 103°52'0 0.0
2020-Jan-15 19:30N 01°16' E 103°52'0 0.0
2020-Jan-15 18:00N 01°16' E 103°52'0 0.0
2020-Jan-15 14:00N 01°16' E 103°52'0 0.0
2020-Jan-15 12:30N 01°16' E 103°52'0 0.0
2020-Jan-15 11:30N 01°16' E 103°52'4 2.1
2020-Jan-15 09:30N 01°14' E 103°55'9 9.0
2020-Jan-15 08:30N 01°17' E 104°04'15 4.2
2020-Jan-15 05:00N 01°27' E 103°53'4 1.3
2020-Jan-15 02:18N 01°28' E 103°50'0 0.0
2020-Jan-15 01:24N 01°28' E 103°50'0 0.0
2020-Jan-14 23:54N 01°28' E 103°50'0 0.0
2020-Jan-14 21:30N 01°28' E 103°50'0 0.0
2020-Jan-14 20:51N 01°28' E 103°50'0 0.0
2020-Jan-14 19:27N 01°28' E 103°50'0 0.1
2020-Jan-14 18:29N 01°28' E 103°50'0 0.2
2020-Jan-14 17:59N 01°28' E 103°50'  
Track history (hours):
 
Tides and Currents Weather Stations Pressure Air Temp Water Temp Dewpoint Dewpoint Depression Visibility Wind Speed Wind Dir Waves Ship Positions

Westerdam

Operator: Holland America Line

Last reported at 2020-Jan-18 20:00 UTC. Time now 2020-Jan-20 23:43 UTC.
Position N 12°30' E 100°36'.

Type: Passenger vessel. MMSI: 244128000.

Wind from 230 at 7 knots

Barometer 1011.8 mb
Air temperature 27.4 ° C
Visibility: greater than 5.4 NM
Dewpoint 16.7 ° C
Water temperature 28.8 ° C

Date/timePositionNaut miles runAvg speedWind from/ knotsBaromVisibWave heightAir tempDewpointWater temp
2020-Jan-18 20:00N 12°30' E 100°36'50211.9 230 / 71011.8 5.4 27.416.728.8
2020-Jan-17 02:00N 04°48' E 103°54'3216.1 330 / 91014.4 5.4 26.215.028.0
2020-Jan-17 00:00N 04°18' E 104°06'1919.0 010 / 181012.0 5.4 25.214.923.0
2020-Jan-16 23:00N 04°00' E 104°12'1313.4 010 / 181011.4 5.4 24.214.023.0
2020-Jan-16 22:00N 03°48' E 104°18'1919.0 010 / 181011.410.8 24.214.023.0
2020-Jan-16 21:00N 03°30' E 104°24'3216.2 010 / 181011.410.8 24.214.023.0
2020-Jan-16 19:00N 03°00' E 104°36'10314.0 010 / 181011.410.8 26.215.923.0
2020-Jan-16 11:37N 01°18' E 104°21'813.1
2020-Jan-16 11:00N 01°16' E 104°13'1912.7
2020-Jan-16 09:30N 01°13' E 103°54'4 4.2
2020-Jan-16 08:30N 01°16' E 103°52'0 0.0
2020-Jan-16 04:30N 01°16' E 103°52'0 0.0
2020-Jan-16 04:00N 01°16' E 103°52'0 0.0
2020-Jan-16 03:30N 01°16' E 103°52'0 0.0
2020-Jan-16 02:30N 01°16' E 103°52'0 0.0
2020-Jan-16 01:30N 01°16' E 103°52'0 0.0
2020-Jan-15 23:30N 01°16' E 103°52'0 0.0
2020-Jan-15 22:30N 01°16' E 103°52'0 0.0
2020-Jan-15 20:00N 01°16' E 103°52'0 0.0
2020-Jan-15 19:30N 01°16' E 103°52'0 0.0
2020-Jan-15 18:00N 01°16' E 103°52'0 0.0
2020-Jan-15 14:00N 01°16' E 103°52'0 0.0
2020-Jan-15 12:30N 01°16' E 103°52'0 0.0
2020-Jan-15 11:30N 01°16' E 103°52'4 2.1
2020-Jan-15 09:30N 01°14' E 103°55'9 9.0
2020-Jan-15 08:30N 01°17' E 104°04'15 4.2
2020-Jan-15 05:00N 01°27' E 103°53'4 1.3
2020-Jan-15 02:18N 01°28' E 103°50'0 0.0
2020-Jan-15 01:24N 01°28' E 103°50'0 0.0
2020-Jan-14 23:54N 01°28' E 103°50'0 0.0
2020-Jan-14 21:30N 01°28' E 103°50'0 0.0
2020-Jan-14 20:51N 01°28' E 103°50'0 0.0
2020-Jan-14 19:27N 01°28' E 103°50'0 0.1
2020-Jan-14 18:29N 01°28' E 103°50'0 0.2
2020-Jan-14 17:59N 01°28' E 103°50'  

Dump ship's entire track history